Data at: 1736 UTC 20 May 2022

METAR for:KSLE (Salem Muni, OR, US)
Text:KSLE 201656Z 02006KT 10SM FEW027 FEW043 12/04 A3029 RMK AO2 SLP259 T01170039
Temperature: 11.7°C ( 53°F)
Dewpoint: 3.9°C ( 39°F) [RH = 59%]
Pressure (altimeter):30.29 inches Hg (1025.8 mb) [Sea level pressure: 1025.9 mb]
Winds:from the NNE (20 degrees) at 7 MPH (6 knots; 3.1 m/s)
Visibility:10 or more sm (16+ km)
Ceiling:at least 12,000 feet AGL
Clouds: few clouds at 2700 feet AGL, few clouds at 4300 feet AGL

TAF for:KSLE (Salem Muni, OR, US) issued at 1120 UTC 20 May 2022
Text:KSLE 201120Z 2012/2112 VRB03KT P6SM FEW030 OVC050
Forecast period:1200 to 1900 UTC 20 May 2022
Forecast type:FROM: standard forecast or significant change
Winds:variable direction winds at 3 MPH (3 knots; 1.5 m/s)
Visibility:6 or more sm (10+ km)
Ceiling:5000 feet AGL
Clouds: few clouds at 3000 feet AGL, overcast cloud deck at 5000 feet AGL
Text:FM201900 01006KT P6SM SCT050
Forecast period:1900 UTC 20 May 2022 to 1200 UTC 21 May 2022
Forecast type:FROM: standard forecast or significant change
Winds:from the N (10 degrees) at 7 MPH (6 knots; 3.1 m/s)
Visibility:6 or more sm (10+ km)
Ceiling:at least 12,000 feet AGL
Clouds: scattered clouds at 5000 feet AGL